createdAt,value
2023-04-27T00:00:18.037Z,11.15
2023-04-27T00:03:24.514Z,14.78
2023-04-27T00:06:30.078Z,11.33
2023-04-27T00:09:35.911Z,10.20
2023-04-27T00:12:41.464Z,7.03
2023-04-27T00:15:47.653Z,8.65
2023-04-27T00:18:54.210Z,9.38
2023-04-27T00:22:00.686Z,11.78
2023-04-27T00:25:07.275Z,8.90
2023-04-27T00:28:13.337Z,12.10
2023-04-27T00:31:19.642Z,10.45
2023-04-27T00:34:25.105Z,10.25
2023-04-27T00:37:31.264Z,9.28
2023-04-27T00:40:36.246Z,12.60
2023-04-27T00:43:41.434Z,10.40
2023-04-27T00:46:47.070Z,9.38
2023-04-27T00:49:52.980Z,10.58
2023-04-27T00:52:58.920Z,11.90
2023-04-27T00:56:05.188Z,12.25
2023-04-27T00:59:11.897Z,11.45
2023-04-27T01:02:17.839Z,8.85
2023-04-27T01:05:24.420Z,8.83
2023-04-27T01:08:29.599Z,12.30
2023-04-27T01:11:34.802Z,9.58
2023-04-27T01:14:39.627Z,13.62
2023-04-27T01:17:44.727Z,10.58
2023-04-27T01:20:51.421Z,9.35
2023-04-27T01:23:58.341Z,9.75
2023-04-27T01:27:04.370Z,9.25
2023-04-27T01:30:11.042Z,8.70
2023-04-27T01:33:16.598Z,11.15
2023-04-27T01:36:22.806Z,12.70
2023-04-27T01:39:27.896Z,9.43
2023-04-27T01:42:32.659Z,10.03
2023-04-27T01:45:40.126Z,7.62
2023-04-27T01:48:45.482Z,14.47
2023-04-27T01:51:50.854Z,10.40
2023-04-27T01:54:56.188Z,12.40
2023-04-27T01:58:03.049Z,13.88
2023-04-27T02:01:08.282Z,9.05
2023-04-27T02:04:14.228Z,9.75
2023-04-27T02:07:14.116Z,9.98
2023-04-27T02:10:22.086Z,8.00
2023-04-27T02:13:27.862Z,10.10
2023-04-27T02:16:34.073Z,9.43
2023-04-27T02:19:33.638Z,11.65
2023-04-27T02:22:40.003Z,12.13
2023-04-27T02:25:45.784Z,8.43
2023-04-27T02:28:52.143Z,7.62
2023-04-27T02:31:58.368Z,8.20
2023-04-27T02:35:05.311Z,11.38
2023-04-27T02:38:11.654Z,10.65
2023-04-27T02:41:17.012Z,8.63
2023-04-27T02:44:25.070Z,12.15
2023-04-27T02:47:32.194Z,8.78
2023-04-27T02:50:38.241Z,8.38
2023-04-27T02:53:43.632Z,11.85
2023-04-27T02:56:49.033Z,9.75
2023-04-27T02:59:54.481Z,10.20
2023-04-27T03:03:00.655Z,12.35
2023-04-27T03:06:06.852Z,12.05
2023-04-27T03:09:13.267Z,10.08
2023-04-27T03:12:21.183Z,12.15
2023-04-27T03:15:27.561Z,10.93
2023-04-27T03:18:33.897Z,14.13
2023-04-27T03:21:39.766Z,17.32
2023-04-27T03:24:47.794Z,13.28
2023-04-27T03:27:54.579Z,10.40
2023-04-27T03:31:00.922Z,10.30
2023-04-27T03:34:06.793Z,11.55
2023-04-27T03:37:13.685Z,12.10
2023-04-27T03:40:19.310Z,6.78
2023-04-27T03:43:25.475Z,10.00
2023-04-27T03:46:32.739Z,8.58
2023-04-27T03:49:38.116Z,9.35
2023-04-27T03:52:44.872Z,10.25
2023-04-27T03:55:57.618Z,9.98
2023-04-27T03:59:02.434Z,9.45
2023-04-27T04:02:13.805Z,10.30
2023-04-27T04:05:21.551Z,9.38
2023-04-27T04:08:28.333Z,9.90
2023-04-27T04:11:34.957Z,11.12
2023-04-27T04:14:42.012Z,8.05
2023-04-27T04:17:48.202Z,8.25
2023-04-27T04:20:54.114Z,7.20
2023-04-27T04:24:01.950Z,9.65
2023-04-27T04:27:10.140Z,6.35
2023-04-27T04:30:15.360Z,6.53
2023-04-27T04:33:20.521Z,8.80
2023-04-27T04:36:26.332Z,8.43
2023-04-27T04:39:33.713Z,9.88
2023-04-27T04:42:41.166Z,21.65
2023-04-27T04:45:46.240Z,8.20
2023-04-27T04:48:45.498Z,12.30
2023-04-27T04:51:38.945Z,11.38
2023-04-27T04:54:44.208Z,16.93
2023-04-27T04:57:50.816Z,6.75
2023-04-27T05:00:55.876Z,16.48
2023-04-27T05:04:02.059Z,11.40
2023-04-27T05:07:08.778Z,9.88
2023-04-27T05:10:15.877Z,7.83
2023-04-27T05:13:21.949Z,12.33
2023-04-27T05:16:26.977Z,10.40
2023-04-27T05:19:34.409Z,6.28
2023-04-27T05:22:40.327Z,7.00
2023-04-27T05:25:48.572Z,8.43
2023-04-27T05:28:57.661Z,6.95
2023-04-27T05:32:04.456Z,8.95
2023-04-27T05:35:12.135Z,7.03
2023-04-27T05:38:17.745Z,8.73
2023-04-27T05:41:22.991Z,7.90
2023-04-27T05:44:31.245Z,6.53
2023-04-27T05:47:38.039Z,7.80
2023-04-27T05:50:44.110Z,7.53
2023-04-27T05:53:49.849Z,5.97
2023-04-27T05:56:55.428Z,9.55
2023-04-27T06:00:00.836Z,8.98
2023-04-27T06:03:07.984Z,7.25
2023-04-27T06:06:15.008Z,12.00
2023-04-27T06:09:20.919Z,6.78
2023-04-27T06:12:26.835Z,9.28
2023-04-27T06:15:34.911Z,5.37
2023-04-27T06:18:40.342Z,7.25
2023-04-27T06:21:50.442Z,8.68
2023-04-27T06:24:57.314Z,6.30
2023-04-27T06:28:04.432Z,8.08
2023-04-27T06:31:10.519Z,8.63
2023-04-27T06:34:15.728Z,7.67
2023-04-27T06:37:25.476Z,10.85
2023-04-27T06:40:32.545Z,6.83
2023-04-27T06:43:40.043Z,7.78
2023-04-27T06:46:46.143Z,12.88
2023-04-27T06:49:53.858Z,8.15
2023-04-27T06:53:00.302Z,13.55
2023-04-27T06:56:06.344Z,11.88
2023-04-27T06:59:12.272Z,12.13
2023-04-27T07:02:17.926Z,7.80
2023-04-27T07:05:24.995Z,9.75
2023-04-27T07:08:32.603Z,6.85
2023-04-27T07:11:38.825Z,11.08
2023-04-27T07:14:44.137Z,7.40
2023-04-27T07:17:50.121Z,8.73
2023-04-27T07:20:58.235Z,9.00
2023-04-27T07:24:05.150Z,8.03
2023-04-27T07:27:10.491Z,7.75
2023-04-27T07:30:17.013Z,8.73
2023-04-27T07:33:22.958Z,8.83
2023-04-27T07:36:29.408Z,8.65
2023-04-27T07:39:35.526Z,6.95
2023-04-27T07:42:42.790Z,9.15
2023-04-27T07:45:48.920Z,8.90
2023-04-27T07:48:57.471Z,10.65
2023-04-27T07:52:04.623Z,10.40
2023-04-27T07:55:09.927Z,9.75
2023-04-27T07:58:19.011Z,7.95
2023-04-27T08:01:25.011Z,8.85
2023-04-27T08:04:31.766Z,9.95
2023-04-27T08:07:44.127Z,8.90
2023-04-27T08:10:46.545Z,7.90
2023-04-27T08:13:52.277Z,7.87
2023-04-27T08:16:58.861Z,13.05
2023-04-27T08:20:05.820Z,11.10
2023-04-27T08:23:14.522Z,8.80
2023-04-27T08:26:20.972Z,9.83
2023-04-27T08:29:28.825Z,9.25
2023-04-27T08:32:36.417Z,10.23
2023-04-27T08:35:43.083Z,9.30
2023-04-27T08:38:51.349Z,8.68
2023-04-27T08:42:01.189Z,10.03
2023-04-27T08:45:05.941Z,11.83
2023-04-27T08:48:11.216Z,9.40
2023-04-27T08:51:18.778Z,9.28
2023-04-27T08:54:25.968Z,9.53
2023-04-27T08:57:34.283Z,7.53
2023-04-27T09:00:42.491Z,5.65
2023-04-27T09:03:53.040Z,6.25
2023-04-27T09:06:58.976Z,7.58
2023-04-27T09:10:05.038Z,6.20
2023-04-27T09:13:14.283Z,5.17
2023-04-27T09:16:21.304Z,8.55
2023-04-27T09:19:31.018Z,4.17
2023-04-27T09:22:36.504Z,10.45
2023-04-27T09:25:45.760Z,7.28
2023-04-27T09:28:57.534Z,7.30
2023-04-27T09:32:03.248Z,6.35
2023-04-27T09:35:10.499Z,7.70
2023-04-27T09:38:17.074Z,4.85
2023-04-27T09:41:24.786Z,4.65
2023-04-27T09:44:31.158Z,4.70
2023-04-27T09:47:38.184Z,4.62
2023-04-27T09:50:44.721Z,6.05
2023-04-27T09:54:05.299Z,3.90
2023-04-27T09:57:22.698Z,5.12
2023-04-27T10:01:00.981Z,4.47
2023-04-27T10:04:32.609Z,4.25
2023-04-27T10:07:40.230Z,5.25
2023-04-27T10:10:49.965Z,5.58
2023-04-27T10:14:08.118Z,4.97
2023-04-27T10:17:14.893Z,6.62
2023-04-27T10:20:24.087Z,4.00
2023-04-27T10:23:41.366Z,4.55
2023-04-27T10:26:45.933Z,3.33
2023-04-27T10:29:57.161Z,5.92
2023-04-27T10:33:14.291Z,4.47
2023-04-27T10:36:21.163Z,5.12
2023-04-27T10:39:46.883Z,4.87
2023-04-27T10:42:43.674Z,5.08
2023-04-27T10:45:49.141Z,6.35
2023-04-27T10:49:00.516Z,3.75
2023-04-27T10:52:06.345Z,6.78
2023-04-27T10:55:13.582Z,8.05
2023-04-27T10:58:18.868Z,4.60
2023-04-27T11:01:28.709Z,5.70
2023-04-27T11:04:39.598Z,5.37
2023-04-27T11:08:01.306Z,7.47
2023-04-27T11:11:08.453Z,3.90
2023-04-27T11:14:17.280Z,6.28
2023-04-27T11:17:23.308Z,7.05
2023-04-27T11:20:33.414Z,6.30
2023-04-27T11:23:48.704Z,9.13
2023-04-27T11:26:55.119Z,6.83
2023-04-27T11:30:01.861Z,4.08
2023-04-27T11:33:09.841Z,3.67
2023-04-27T11:36:15.928Z,4.33
2023-04-27T11:39:22.147Z,5.03
2023-04-27T11:42:37.992Z,3.92
2023-04-27T11:45:45.766Z,5.42
2023-04-27T11:48:53.799Z,3.37
2023-04-27T11:52:00.688Z,3.70
2023-04-27T11:55:07.790Z,5.37
2023-04-27T11:58:15.062Z,5.90
2023-04-27T12:01:36.957Z,3.42
2023-04-27T12:04:37.598Z,4.47
2023-04-27T12:07:42.833Z,4.80
2023-04-27T12:10:48.078Z,5.75
2023-04-27T12:13:56.299Z,5.53
2023-04-27T12:17:02.651Z,7.25
2023-04-27T12:20:09.468Z,9.25
2023-04-27T12:23:16.542Z,3.80
2023-04-27T12:26:21.502Z,4.80
2023-04-27T12:29:29.068Z,10.13
2023-04-27T12:32:35.302Z,4.67
2023-04-27T12:35:42.235Z,4.17
2023-04-27T12:38:49.394Z,12.37
2023-04-27T12:41:57.569Z,7.37
2023-04-27T12:45:05.685Z,5.03
2023-04-27T12:48:11.648Z,10.00
2023-04-27T12:51:20.423Z,6.35
2023-04-27T12:54:27.258Z,7.72
2023-04-27T12:57:33.738Z,7.42
2023-04-27T13:00:40.529Z,9.20
2023-04-27T13:03:45.746Z,6.95
2023-04-27T13:06:53.818Z,3.75
2023-04-27T13:10:00.016Z,7.15
2023-04-27T13:13:06.626Z,4.83
2023-04-27T13:16:12.567Z,12.37
2023-04-27T13:19:18.784Z,8.40
2023-04-27T13:22:24.151Z,9.98
2023-04-27T13:25:30.140Z,6.05
2023-04-27T13:28:35.844Z,5.75
2023-04-27T13:31:41.038Z,11.38
2023-04-27T13:35:04.326Z,5.47
2023-04-27T13:38:10.341Z,8.18
2023-04-27T13:41:16.357Z,5.78
2023-04-27T13:44:23.411Z,3.90
2023-04-27T13:47:29.542Z,6.65
2023-04-27T13:50:36.329Z,5.78
2023-04-27T13:53:43.121Z,5.65
2023-04-27T13:56:49.366Z,5.75
2023-04-27T13:59:57.661Z,7.08
2023-04-27T14:03:05.525Z,12.03
2023-04-27T14:06:12.122Z,6.28
2023-04-27T14:09:18.642Z,7.08
2023-04-27T14:12:24.903Z,8.20
2023-04-27T14:15:31.920Z,5.95
2023-04-27T14:18:37.013Z,9.03
2023-04-27T14:21:42.900Z,6.85
2023-04-27T14:24:49.112Z,7.25
2023-04-27T14:27:56.198Z,9.23
2023-04-27T14:31:02.665Z,7.72
2023-04-27T14:34:08.717Z,9.90
2023-04-27T14:37:14.693Z,14.68
2023-04-27T14:40:22.372Z,37.63
2023-04-27T14:43:29.350Z,14.05
2023-04-27T14:46:35.629Z,11.63
2023-04-27T14:49:42.677Z,7.10
2023-04-27T14:52:49.525Z,11.25
2023-04-27T14:55:55.815Z,9.35
2023-04-27T14:59:02.009Z,6.15
2023-04-27T15:02:07.600Z,10.63
2023-04-27T15:05:13.917Z,11.80
2023-04-27T15:08:20.345Z,17.37
2023-04-27T15:11:20.160Z,10.68
2023-04-27T15:14:08.541Z,10.50
2023-04-27T15:17:02.637Z,10.82
2023-04-27T15:20:03.791Z,8.75
2023-04-27T15:23:10.141Z,7.87
2023-04-27T15:26:15.301Z,9.20
2023-04-27T15:29:22.013Z,7.28
2023-04-27T15:32:30.228Z,6.15
2023-04-27T15:35:35.521Z,10.48
2023-04-27T15:38:43.221Z,9.93
2023-04-27T15:41:48.662Z,9.48
2023-04-27T15:44:54.535Z,9.95
2023-04-27T15:48:00.620Z,8.30
2023-04-27T15:51:08.873Z,12.33
2023-04-27T15:54:15.132Z,15.08
2023-04-27T15:57:20.924Z,17.65
2023-04-27T16:00:29.489Z,16.05
2023-04-27T16:03:37.125Z,11.80
2023-04-27T16:06:48.244Z,11.28
2023-04-27T16:09:54.478Z,11.95
2023-04-27T16:13:01.317Z,11.90
2023-04-27T16:16:07.285Z,10.68
2023-04-27T16:19:14.303Z,11.28
2023-04-27T16:22:22.624Z,10.98
2023-04-27T16:25:28.156Z,12.07
2023-04-27T16:28:35.559Z,12.00
2023-04-27T16:31:40.630Z,13.00
2023-04-27T16:34:46.300Z,15.65
2023-04-27T16:37:52.567Z,13.90
2023-04-27T16:41:01.368Z,10.55
2023-04-27T16:44:07.268Z,13.22
2023-04-27T16:47:13.312Z,12.93
2023-04-27T16:50:18.653Z,11.45
2023-04-27T16:53:26.830Z,12.63
2023-04-27T16:56:43.336Z,12.15
2023-04-27T16:59:49.095Z,12.43
2023-04-27T17:02:54.800Z,11.80
2023-04-27T17:06:03.901Z,13.80
2023-04-27T17:09:13.810Z,12.65
2023-04-27T17:12:22.253Z,15.25
2023-04-27T17:15:28.329Z,16.40
2023-04-27T17:18:37.536Z,15.05
2023-04-27T17:21:44.754Z,15.48
2023-04-27T17:24:50.765Z,13.05
2023-04-27T17:27:55.882Z,13.28
2023-04-27T17:31:02.138Z,13.35
2023-04-27T17:34:07.007Z,16.32
2023-04-27T17:37:13.726Z,14.83
2023-04-27T17:40:20.323Z,16.32
2023-04-27T17:43:27.663Z,14.63
2023-04-27T17:46:33.920Z,13.35
2023-04-27T17:49:40.836Z,14.35
2023-04-27T17:52:48.139Z,15.03
2023-04-27T17:55:58.188Z,14.30
2023-04-27T17:59:03.987Z,17.07
2023-04-27T18:02:10.538Z,15.48
2023-04-27T18:05:15.920Z,16.02
2023-04-27T18:08:22.505Z,13.93
2023-04-27T18:11:29.395Z,14.15
2023-04-27T18:14:36.556Z,10.10
2023-04-27T18:17:42.684Z,10.88
2023-04-27T18:20:51.402Z,11.30
2023-04-27T18:23:57.891Z,11.53
2023-04-27T18:27:04.483Z,14.85
2023-04-27T18:30:11.225Z,14.00
2023-04-27T18:33:16.657Z,13.10
2023-04-27T18:36:22.943Z,14.03
2023-04-27T18:39:29.052Z,15.08
2023-04-27T18:42:35.615Z,12.63
2023-04-27T18:45:42.054Z,15.15
2023-04-27T18:48:48.815Z,12.85
2023-04-27T18:51:55.002Z,13.50
2023-04-27T18:55:02.378Z,15.70
2023-04-27T18:58:08.653Z,15.18
2023-04-27T19:01:14.430Z,17.92
2023-04-27T19:04:21.363Z,13.38
2023-04-27T19:07:31.554Z,12.20
2023-04-27T19:10:38.342Z,12.95
2023-04-27T19:13:44.567Z,14.75
2023-04-27T19:16:50.371Z,12.68
2023-04-27T19:19:57.943Z,14.00
2023-04-27T19:23:04.702Z,13.90
2023-04-27T19:26:13.634Z,12.88
2023-04-27T19:29:19.403Z,12.93
2023-04-27T19:32:26.468Z,15.08
2023-04-27T19:35:34.225Z,13.95
2023-04-27T19:38:40.775Z,10.40
2023-04-27T19:41:48.192Z,11.38
2023-04-27T19:44:54.590Z,12.98
2023-04-27T19:48:01.493Z,12.73
2023-04-27T19:51:08.738Z,12.85
2023-04-27T19:54:16.896Z,10.50
2023-04-27T19:57:23.977Z,11.45
2023-04-27T20:00:31.798Z,10.32
2023-04-27T20:03:37.985Z,11.60
2023-04-27T20:06:45.614Z,10.20
2023-04-27T20:09:52.920Z,10.23
2023-04-27T20:12:58.844Z,10.70
2023-04-27T20:16:05.555Z,11.25
2023-04-27T20:19:13.230Z,12.85
2023-04-27T20:22:20.049Z,10.80
2023-04-27T20:25:27.536Z,10.82
2023-04-27T20:28:34.032Z,9.33
2023-04-27T20:31:40.609Z,9.05
2023-04-27T20:34:47.092Z,9.20
2023-04-27T20:37:54.281Z,12.98
2023-04-27T20:41:00.599Z,8.23
2023-04-27T20:44:10.073Z,8.50
2023-04-27T20:47:14.941Z,8.10
2023-04-27T20:50:22.295Z,8.85
2023-04-27T20:53:28.248Z,9.85
2023-04-27T20:56:34.326Z,8.63
2023-04-27T20:59:32.592Z,9.53
2023-04-27T21:02:25.922Z,8.53
2023-04-27T21:05:32.427Z,9.83
2023-04-27T21:08:37.760Z,6.87
2023-04-27T21:11:43.871Z,6.97
2023-04-27T21:14:51.270Z,7.17
2023-04-27T21:17:58.973Z,7.95
2023-04-27T21:21:06.859Z,7.42
2023-04-27T21:24:12.744Z,9.18
2023-04-27T21:27:20.725Z,7.17
2023-04-27T21:30:27.255Z,9.60
2023-04-27T21:33:33.268Z,9.25
2023-04-27T21:36:41.538Z,8.23
2023-04-27T21:39:48.046Z,8.85
2023-04-27T21:42:54.604Z,9.48
2023-04-27T21:45:59.469Z,9.10
2023-04-27T21:49:05.525Z,8.63
2023-04-27T21:52:10.789Z,9.60
2023-04-27T21:55:15.843Z,9.08
2023-04-27T21:58:21.681Z,9.60
2023-04-27T22:01:28.129Z,8.68
2023-04-27T22:04:33.615Z,8.95
2023-04-27T22:07:38.956Z,7.28
2023-04-27T22:10:44.018Z,8.40
2023-04-27T22:13:50.940Z,9.65
2023-04-27T22:16:57.098Z,8.10
2023-04-27T22:20:02.976Z,7.92
2023-04-27T22:23:08.728Z,8.28
2023-04-27T22:26:14.432Z,7.78
2023-04-27T22:29:21.325Z,7.90
2023-04-27T22:32:27.611Z,8.90
2023-04-27T22:35:32.925Z,8.88
2023-04-27T22:38:39.953Z,7.45
2023-04-27T22:41:46.025Z,7.45
2023-04-27T22:44:53.180Z,9.48
2023-04-27T22:47:59.645Z,7.08
2023-04-27T22:51:05.150Z,8.20
2023-04-27T22:54:11.314Z,6.97
2023-04-27T22:57:15.813Z,7.78
2023-04-27T23:00:22.366Z,7.40
2023-04-27T23:03:27.666Z,7.78
2023-04-27T23:06:35.053Z,7.25
2023-04-27T23:09:43.107Z,6.65
2023-04-27T23:12:48.439Z,8.20
2023-04-27T23:15:54.769Z,7.47
2023-04-27T23:19:00.351Z,6.85
2023-04-27T23:22:05.823Z,8.30
2023-04-27T23:25:11.367Z,8.45
2023-04-27T23:28:17.379Z,9.35
2023-04-27T23:31:24.123Z,8.30
2023-04-27T23:34:30.570Z,10.05
2023-04-27T23:37:36.596Z,9.25
2023-04-27T23:40:43.097Z,9.53
2023-04-27T23:43:50.066Z,9.85
2023-04-27T23:46:56.291Z,11.68
2023-04-27T23:50:02.117Z,12.05
2023-04-27T23:53:09.070Z,12.30
2023-04-27T23:56:15.888Z,11.45
2023-04-27T23:59:22.192Z,11.50
